Pagina principale
METAR-TAF:

METAR-TAF

Aeroporti :

Aeroporto di Bari-Palese

Bari, Italia

latitudine: 41-08N, longitudine: 016-47E, altezza: 34 m

Osservazione

Il bollettino è stato emesso 24 minuti fa, alle 12:20 UTC
Vento 7 kt da est/nord-est
Temperature 18°C
Umidità 56%
Pressione 1019 hPa
Visibilità 10 km o più
nessuna nube inferiore a 1500 m e nessun cumulonembo

METAR: LIBD 261220Z 07007KT CAVOK 18/09 Q1019

Ora: 14:44 (12:44 UTC)

Previsione

Il bollettino è stato emesso 1 ora e 44 minuti fa, alle 11:00 UTC
Previsione valida dal 26 alle 12 UTC al 27 alle 12 UTC
Vento 10 kt da est
Visibilità 10 km o più
Nubi sparse ad un'altezza di 3000 ft
Evoluzione graduale
dal 26 alle 16 UTC al 26 alle 18 UTC
Vento 5 kt da direzioni variabili
Evoluzione graduale
dal 27 alle 10 UTC al 27 alle 12 UTC
Vento 10 kt da nord/nord-est

TAF: LIBD 261100Z 2612/2712 08010KT 9999 SCT030 BECMG 2616/2618 VRB05KT BECMG 2710/2712 02010KT

Osservazioni e previsioni meteorologiche di più di 4000 aeroporti (messaggi METAR e TAF).

Le stazioni disponibili sono rappresentate dai dischi gialli e rossi sulla carta.

Puntare il mouse per vedere il nome della stazione.

Clicca sopra per visualizzare le osservazioni e previsioni meteorologiche.

Per cambiare la mappa : fare clic sui pulsanti verdi con una croce nera per ingrandire, il pulsante verde con un trattino per diminuire, o sulla freccia verde per le mappe adiacenti.


METAR-TAF: